sensor_id;sensor_type;location;lat;lon;timestamp;P1;durP1;ratioP1;P2;durP2;ratioP2
43994;SDS011;51687;52.160;5.298;2023-02-10T00:03:38;21.70;;;19.75;;
43994;SDS011;51687;52.160;5.298;2023-02-10T00:06:05;21.13;;;19.13;;
43994;SDS011;51687;52.160;5.298;2023-02-10T00:08:33;22.00;;;18.37;;
43994;SDS011;51687;52.160;5.298;2023-02-10T00:11:01;20.52;;;18.52;;
43994;SDS011;51687;52.160;5.298;2023-02-10T00:13:30;21.80;;;19.05;;
43994;SDS011;51687;52.160;5.298;2023-02-10T00:15:57;20.50;;;18.33;;
43994;SDS011;51687;52.160;5.298;2023-02-10T00:18:25;24.48;;;18.50;;
43994;SDS011;51687;52.160;5.298;2023-02-10T00:20:52;23.88;;;19.35;;
43994;SDS011;51687;52.160;5.298;2023-02-10T00:23:19;20.48;;;18.33;;
43994;SDS011;51687;52.160;5.298;2023-02-10T00:25:46;19.73;;;17.65;;
43994;SDS011;51687;52.160;5.298;2023-02-10T00:28:14;20.25;;;17.88;;
43994;SDS011;51687;52.160;5.298;2023-02-10T00:30:40;19.73;;;17.58;;
43994;SDS011;51687;52.160;5.298;2023-02-10T00:33:07;17.85;;;16.08;;
43994;SDS011;51687;52.160;5.298;2023-02-10T00:35:34;18.90;;;17.30;;
43994;SDS011;51687;52.160;5.298;2023-02-10T00:38:03;18.65;;;16.40;;
43994;SDS011;51687;52.160;5.298;2023-02-10T00:40:29;20.75;;;16.50;;
43994;SDS011;51687;52.160;5.298;2023-02-10T00:42:56;18.45;;;16.65;;
43994;SDS011;51687;52.160;5.298;2023-02-10T00:45:23;18.20;;;16.40;;
43994;SDS011;51687;52.160;5.298;2023-02-10T00:47:50;18.77;;;15.52;;
43994;SDS011;51687;52.160;5.298;2023-02-10T00:50:16;17.65;;;15.32;;
43994;SDS011;51687;52.160;5.298;2023-02-10T00:52:43;17.08;;;15.57;;
43994;SDS011;51687;52.160;5.298;2023-02-10T00:55:10;22.15;;;16.02;;
43994;SDS011;51687;52.160;5.298;2023-02-10T00:57:36;17.48;;;15.32;;
43994;SDS011;51687;52.160;5.298;2023-02-10T01:00:03;18.50;;;15.15;;
43994;SDS011;51687;52.160;5.298;2023-02-10T01:02:31;20.75;;;15.63;;
43994;SDS011;51687;52.160;5.298;2023-02-10T01:04:58;17.92;;;14.65;;
43994;SDS011;51687;52.160;5.298;2023-02-10T01:07:25;18.77;;;15.85;;
43994;SDS011;51687;52.160;5.298;2023-02-10T01:09:52;17.67;;;15.98;;
43994;SDS011;51687;52.160;5.298;2023-02-10T01:12:19;16.90;;;15.10;;
43994;SDS011;51687;52.160;5.298;2023-02-10T01:14:45;18.88;;;15.43;;
43994;SDS011;51687;52.160;5.298;2023-02-10T01:17:12;20.45;;;15.38;;
43994;SDS011;51687;52.160;5.298;2023-02-10T01:19:39;16.00;;;14.32;;
43994;SDS011;51687;52.160;5.298;2023-02-10T01:22:05;15.95;;;14.48;;
43994;SDS011;51687;52.160;5.298;2023-02-10T01:24:32;16.30;;;14.77;;
43994;SDS011;51687;52.160;5.298;2023-02-10T01:26:59;21.55;;;14.48;;
43994;SDS011;51687;52.160;5.298;2023-02-10T01:29:26;15.65;;;14.15;;
43994;SDS011;51687;52.160;5.298;2023-02-10T01:31:52;17.65;;;13.82;;
43994;SDS011;51687;52.160;5.298;2023-02-10T01:34:19;16.23;;;14.48;;
43994;SDS011;51687;52.160;5.298;2023-02-10T01:36:46;18.58;;;14.10;;
43994;SDS011;51687;52.160;5.298;2023-02-10T01:39:13;20.33;;;14.10;;
43994;SDS011;51687;52.160;5.298;2023-02-10T01:41:42;19.63;;;14.80;;
43994;SDS011;51687;52.160;5.298;2023-02-10T01:49:16;14.60;;;13.15;;
43994;SDS011;51687;52.160;5.298;2023-02-10T01:51:46;16.58;;;13.27;;
43994;SDS011;51687;52.160;5.298;2023-02-10T01:54:36;15.38;;;13.77;;
43994;SDS011;51687;52.160;5.298;2023-02-10T01:57:07;14.77;;;13.35;;
43994;SDS011;51687;52.160;5.298;2023-02-10T01:59:35;14.60;;;13.10;;
43994;SDS011;51687;52.160;5.298;2023-02-10T02:02:04;15.88;;;14.07;;
43994;SDS011;51687;52.160;5.298;2023-02-10T02:04:52;15.75;;;14.23;;
43994;SDS011;51687;52.160;5.298;2023-02-10T02:07:26;20.65;;;13.55;;
43994;SDS011;51687;52.160;5.298;2023-02-10T02:09:55;16.85;;;13.63;;
43994;SDS011;51687;52.160;5.298;2023-02-10T02:26:53;15.95;;;14.40;;
43994;SDS011;51687;52.160;5.298;2023-02-10T02:32:23;18.35;;;15.27;;
43994;SDS011;51687;52.160;5.298;2023-02-10T02:35:16;21.33;;;14.63;;
43994;SDS011;51687;52.160;5.298;2023-02-10T02:37:46;16.58;;;13.18;;
43994;SDS011;51687;52.160;5.298;2023-02-10T02:40:14;16.70;;;13.60;;
43994;SDS011;51687;52.160;5.298;2023-02-10T02:42:42;15.93;;;13.40;;
43994;SDS011;51687;52.160;5.298;2023-02-10T02:45:10;15.13;;;13.55;;
43994;SDS011;51687;52.160;5.298;2023-02-10T02:50:21;15.93;;;14.10;;
43994;SDS011;51687;52.160;5.298;2023-02-10T02:53:00;14.45;;;12.93;;
43994;SDS011;51687;52.160;5.298;2023-02-10T03:00:52;19.42;;;13.93;;
43994;SDS011;51687;52.160;5.298;2023-02-10T03:03:21;16.52;;;13.30;;
43994;SDS011;51687;52.160;5.298;2023-02-10T03:05:48;16.20;;;13.80;;
43994;SDS011;51687;52.160;5.298;2023-02-10T03:08:15;15.55;;;14.05;;
43994;SDS011;51687;52.160;5.298;2023-02-10T03:10:42;21.65;;;15.00;;
43994;SDS011;51687;52.160;5.298;2023-02-10T03:13:08;20.52;;;15.88;;
43994;SDS011;51687;52.160;5.298;2023-02-10T03:15:35;17.38;;;15.60;;
43994;SDS011;51687;52.160;5.298;2023-02-10T03:18:02;15.05;;;13.55;;
43994;SDS011;51687;52.160;5.298;2023-02-10T03:20:28;16.17;;;14.48;;
43994;SDS011;51687;52.160;5.298;2023-02-10T03:22:55;17.63;;;14.00;;
43994;SDS011;51687;52.160;5.298;2023-02-10T03:25:22;16.02;;;14.35;;
43994;SDS011;51687;52.160;5.298;2023-02-10T03:27:49;17.50;;;15.65;;
43994;SDS011;51687;52.160;5.298;2023-02-10T03:30:17;20.15;;;14.07;;
43994;SDS011;51687;52.160;5.298;2023-02-10T03:32:44;21.35;;;16.95;;
43994;SDS011;51687;52.160;5.298;2023-02-10T03:35:12;24.40;;;18.58;;
43994;SDS011;51687;52.160;5.298;2023-02-10T03:37:39;21.58;;;19.23;;
43994;SDS011;51687;52.160;5.298;2023-02-10T03:40:07;20.67;;;17.98;;
43994;SDS011;51687;52.160;5.298;2023-02-10T03:42:35;24.08;;;20.02;;
43994;SDS011;51687;52.160;5.298;2023-02-10T03:45:01;21.55;;;19.38;;
43994;SDS011;51687;52.160;5.298;2023-02-10T03:47:28;27.73;;;22.48;;
43994;SDS011;51687;52.160;5.298;2023-02-10T03:49:55;26.88;;;20.95;;
43994;SDS011;51687;52.160;5.298;2023-02-10T03:52:22;38.22;;;24.45;;
43994;SDS011;51687;52.160;5.298;2023-02-10T03:54:48;31.55;;;24.65;;
43994;SDS011;51687;52.160;5.298;2023-02-10T03:57:15;24.05;;;21.15;;
43994;SDS011;51687;52.160;5.298;2023-02-10T03:59:42;34.67;;;23.55;;
43994;SDS011;51687;52.160;5.298;2023-02-10T04:02:08;34.17;;;26.83;;
43994;SDS011;51687;52.160;5.298;2023-02-10T04:04:35;28.13;;;24.05;;
43994;SDS011;51687;52.160;5.298;2023-02-10T04:07:02;33.53;;;26.65;;
43994;SDS011;51687;52.160;5.298;2023-02-10T04:09:29;34.92;;;25.35;;
43994;SDS011;51687;52.160;5.298;2023-02-10T04:11:56;34.58;;;28.17;;
43994;SDS011;51687;52.160;5.298;2023-02-10T04:14:23;43.42;;;30.85;;
43994;SDS011;51687;52.160;5.298;2023-02-10T04:16:50;44.58;;;29.63;;
43994;SDS011;51687;52.160;5.298;2023-02-10T04:19:16;40.65;;;28.65;;
43994;SDS011;51687;52.160;5.298;2023-02-10T04:21:44;42.28;;;30.40;;
43994;SDS011;51687;52.160;5.298;2023-02-10T04:24:10;39.10;;;29.90;;
43994;SDS011;51687;52.160;5.298;2023-02-10T04:26:37;39.55;;;30.90;;
43994;SDS011;51687;52.160;5.298;2023-02-10T04:29:04;41.28;;;30.30;;
43994;SDS011;51687;52.160;5.298;2023-02-10T04:31:31;44.00;;;32.05;;
43994;SDS011;51687;52.160;5.298;2023-02-10T04:33:57;43.65;;;30.67;;
43994;SDS011;51687;52.160;5.298;2023-02-10T04:36:24;37.83;;;30.10;;
43994;SDS011;51687;52.160;5.298;2023-02-10T04:38:51;45.13;;;30.70;;
43994;SDS011;51687;52.160;5.298;2023-02-10T04:41:18;47.80;;;31.13;;
43994;SDS011;51687;52.160;5.298;2023-02-10T04:43:44;38.15;;;30.40;;
43994;SDS011;51687;52.160;5.298;2023-02-10T04:46:11;41.38;;;29.83;;
43994;SDS011;51687;52.160;5.298;2023-02-10T04:48:38;43.83;;;30.17;;
43994;SDS011;51687;52.160;5.298;2023-02-10T04:51:05;34.70;;;29.23;;
43994;SDS011;51687;52.160;5.298;2023-02-10T04:53:33;36.95;;;29.75;;
43994;SDS011;51687;52.160;5.298;2023-02-10T04:56:00;37.35;;;29.88;;
43994;SDS011;51687;52.160;5.298;2023-02-10T04:58:27;32.30;;;28.88;;
43994;SDS011;51687;52.160;5.298;2023-02-10T05:00:54;41.22;;;30.73;;
43994;SDS011;51687;52.160;5.298;2023-02-10T05:03:22;45.55;;;31.00;;
43994;SDS011;51687;52.160;5.298;2023-02-10T05:05:49;43.03;;;31.42;;
43994;SDS011;51687;52.160;5.298;2023-02-10T05:08:18;37.90;;;31.35;;
43994;SDS011;51687;52.160;5.298;2023-02-10T05:10:46;41.95;;;30.20;;
43994;SDS011;51687;52.160;5.298;2023-02-10T05:13:13;53.20;;;33.67;;
43994;SDS011;51687;52.160;5.298;2023-02-10T05:15:40;47.42;;;32.72;;
43994;SDS011;51687;52.160;5.298;2023-02-10T05:18:07;50.95;;;34.05;;
43994;SDS011;51687;52.160;5.298;2023-02-10T05:20:34;44.28;;;32.58;;
43994;SDS011;51687;52.160;5.298;2023-02-10T05:23:01;45.70;;;32.13;;
43994;SDS011;51687;52.160;5.298;2023-02-10T05:25:28;44.08;;;32.13;;
43994;SDS011;51687;52.160;5.298;2023-02-10T05:27:55;46.63;;;32.90;;
43994;SDS011;51687;52.160;5.298;2023-02-10T05:30:22;44.58;;;32.85;;
43994;SDS011;51687;52.160;5.298;2023-02-10T05:32:49;47.10;;;33.90;;
43994;SDS011;51687;52.160;5.298;2023-02-10T05:35:16;46.80;;;32.53;;
43994;SDS011;51687;52.160;5.298;2023-02-10T05:37:42;49.92;;;33.85;;
43994;SDS011;51687;52.160;5.298;2023-02-10T05:40:09;51.95;;;35.88;;
43994;SDS011;51687;52.160;5.298;2023-02-10T05:42:36;51.25;;;34.92;;
43994;SDS011;51687;52.160;5.298;2023-02-10T05:45:03;47.25;;;35.15;;
43994;SDS011;51687;52.160;5.298;2023-02-10T05:47:30;48.53;;;35.38;;
43994;SDS011;51687;52.160;5.298;2023-02-10T05:49:56;61.60;;;36.00;;
43994;SDS011;51687;52.160;5.298;2023-02-10T05:52:23;49.95;;;35.28;;
43994;SDS011;51687;52.160;5.298;2023-02-10T05:54:50;53.75;;;36.83;;
43994;SDS011;51687;52.160;5.298;2023-02-10T05:57:17;57.90;;;35.20;;
43994;SDS011;51687;52.160;5.298;2023-02-10T05:59:43;53.15;;;36.28;;
43994;SDS011;51687;52.160;5.298;2023-02-10T06:02:10;56.55;;;35.47;;
43994;SDS011;51687;52.160;5.298;2023-02-10T06:04:37;51.50;;;35.95;;
43994;SDS011;51687;52.160;5.298;2023-02-10T06:07:05;51.72;;;34.72;;
43994;SDS011;51687;52.160;5.298;2023-02-10T06:09:31;47.30;;;35.10;;
43994;SDS011;51687;52.160;5.298;2023-02-10T06:11:59;49.97;;;33.78;;
43994;SDS011;51687;52.160;5.298;2023-02-10T06:14:26;38.05;;;32.97;;
43994;SDS011;51687;52.160;5.298;2023-02-10T06:16:53;47.72;;;35.92;;
43994;SDS011;51687;52.160;5.298;2023-02-10T06:19:20;51.88;;;35.70;;
43994;SDS011;51687;52.160;5.298;2023-02-10T06:21:47;49.67;;;33.47;;
43994;SDS011;51687;52.160;5.298;2023-02-10T06:24:14;45.05;;;35.13;;
43994;SDS011;51687;52.160;5.298;2023-02-10T06:26:41;48.63;;;35.08;;
43994;SDS011;51687;52.160;5.298;2023-02-10T06:29:08;47.15;;;34.50;;
43994;SDS011;51687;52.160;5.298;2023-02-10T06:31:35;42.67;;;34.03;;
43994;SDS011;51687;52.160;5.298;2023-02-10T06:34:02;48.05;;;33.45;;
43994;SDS011;51687;52.160;5.298;2023-02-10T06:36:28;50.05;;;34.22;;
43994;SDS011;51687;52.160;5.298;2023-02-10T06:38:55;42.22;;;32.17;;
43994;SDS011;51687;52.160;5.298;2023-02-10T06:41:22;53.22;;;34.08;;
43994;SDS011;51687;52.160;5.298;2023-02-10T06:43:49;48.53;;;33.28;;
43994;SDS011;51687;52.160;5.298;2023-02-10T06:46:17;47.67;;;32.53;;
43994;SDS011;51687;52.160;5.298;2023-02-10T06:48:44;48.17;;;33.47;;
43994;SDS011;51687;52.160;5.298;2023-02-10T06:51:10;40.25;;;32.17;;
43994;SDS011;51687;52.160;5.298;2023-02-10T06:53:37;41.08;;;31.90;;
43994;SDS011;51687;52.160;5.298;2023-02-10T06:56:04;42.88;;;31.35;;
43994;SDS011;51687;52.160;5.298;2023-02-10T06:58:31;47.42;;;31.92;;
43994;SDS011;51687;52.160;5.298;2023-02-10T07:00:58;41.50;;;29.50;;
43994;SDS011;51687;52.160;5.298;2023-02-10T07:03:27;40.05;;;29.58;;
43994;SDS011;51687;52.160;5.298;2023-02-10T07:05:54;37.65;;;30.13;;
43994;SDS011;51687;52.160;5.298;2023-02-10T07:08:21;34.42;;;30.17;;
43994;SDS011;51687;52.160;5.298;2023-02-10T07:10:47;36.83;;;29.25;;
43994;SDS011;51687;52.160;5.298;2023-02-10T07:13:15;35.65;;;29.40;;
43994;SDS011;51687;52.160;5.298;2023-02-10T07:15:43;37.35;;;28.13;;
43994;SDS011;51687;52.160;5.298;2023-02-10T07:18:10;33.88;;;27.05;;
43994;SDS011;51687;52.160;5.298;2023-02-10T07:20:38;35.22;;;27.70;;
43994;SDS011;51687;52.160;5.298;2023-02-10T07:23:05;32.42;;;27.98;;
43994;SDS011;51687;52.160;5.298;2023-02-10T07:25:32;33.65;;;25.05;;
43994;SDS011;51687;52.160;5.298;2023-02-10T07:27:59;36.53;;;26.25;;
43994;SDS011;51687;52.160;5.298;2023-02-10T07:30:26;40.08;;;26.52;;
43994;SDS011;51687;52.160;5.298;2023-02-10T07:32:52;29.45;;;25.50;;
43994;SDS011;51687;52.160;5.298;2023-02-10T07:35:19;38.30;;;25.83;;
43994;SDS011;51687;52.160;5.298;2023-02-10T07:40:17;32.50;;;24.33;;
43994;SDS011;51687;52.160;5.298;2023-02-10T07:42:44;28.30;;;24.48;;
43994;SDS011;51687;52.160;5.298;2023-02-10T07:45:10;29.88;;;23.60;;
43994;SDS011;51687;52.160;5.298;2023-02-10T07:47:37;27.52;;;24.45;;
43994;SDS011;51687;52.160;5.298;2023-02-10T07:50:04;31.52;;;24.40;;
43994;SDS011;51687;52.160;5.298;2023-02-10T07:52:33;28.40;;;25.40;;
43994;SDS011;51687;52.160;5.298;2023-02-10T07:55:01;27.83;;;25.10;;
43994;SDS011;51687;52.160;5.298;2023-02-10T07:57:28;27.98;;;24.95;;
43994;SDS011;51687;52.160;5.298;2023-02-10T07:59:55;26.92;;;24.02;;
43994;SDS011;51687;52.160;5.298;2023-02-10T08:02:22;33.05;;;25.52;;
43994;SDS011;51687;52.160;5.298;2023-02-10T08:04:49;31.17;;;24.35;;
43994;SDS011;51687;52.160;5.298;2023-02-10T08:07:18;27.83;;;24.85;;
43994;SDS011;51687;52.160;5.298;2023-02-10T08:09:45;27.63;;;24.63;;
43994;SDS011;51687;52.160;5.298;2023-02-10T08:12:12;28.80;;;23.92;;
43994;SDS011;51687;52.160;5.298;2023-02-10T08:14:39;28.00;;;25.08;;
43994;SDS011;51687;52.160;5.298;2023-02-10T08:17:05;26.48;;;23.70;;
43994;SDS011;51687;52.160;5.298;2023-02-10T08:19:33;26.80;;;23.60;;
43994;SDS011;51687;52.160;5.298;2023-02-10T08:24:30;26.48;;;23.73;;
43994;SDS011;51687;52.160;5.298;2023-02-10T08:26:57;27.02;;;24.40;;
43994;SDS011;51687;52.160;5.298;2023-02-10T08:29:24;27.40;;;24.58;;
43994;SDS011;51687;52.160;5.298;2023-02-10T08:31:51;27.58;;;24.70;;
43994;SDS011;51687;52.160;5.298;2023-02-10T08:34:19;27.90;;;24.65;;
43994;SDS011;51687;52.160;5.298;2023-02-10T08:36:47;29.02;;;24.73;;
43994;SDS011;51687;52.160;5.298;2023-02-10T08:39:14;29.25;;;25.00;;
43994;SDS011;51687;52.160;5.298;2023-02-10T08:41:41;33.92;;;27.17;;
43994;SDS011;51687;52.160;5.298;2023-02-10T08:44:09;30.45;;;27.33;;
43994;SDS011;51687;52.160;5.298;2023-02-10T08:46:38;29.83;;;26.75;;
43994;SDS011;51687;52.160;5.298;2023-02-10T08:49:05;31.25;;;26.75;;
43994;SDS011;51687;52.160;5.298;2023-02-10T08:51:33;29.70;;;26.65;;
43994;SDS011;51687;52.160;5.298;2023-02-10T08:54:00;32.75;;;27.25;;
43994;SDS011;51687;52.160;5.298;2023-02-10T08:56:29;33.53;;;27.77;;
43994;SDS011;51687;52.160;5.298;2023-02-10T08:58:56;32.28;;;28.45;;
43994;SDS011;51687;52.160;5.298;2023-02-10T09:01:23;30.65;;;27.33;;
43994;SDS011;51687;52.160;5.298;2023-02-10T09:03:56;31.67;;;28.23;;
43994;SDS011;51687;52.160;5.298;2023-02-10T09:06:26;34.25;;;29.75;;
43994;SDS011;51687;52.160;5.298;2023-02-10T09:08:56;31.08;;;27.85;;
43994;SDS011;51687;52.160;5.298;2023-02-10T09:11:23;35.83;;;30.02;;
43994;SDS011;51687;52.160;5.298;2023-02-10T09:13:50;37.55;;;30.05;;
43994;SDS011;51687;52.160;5.298;2023-02-10T09:16:18;35.78;;;29.50;;
43994;SDS011;51687;52.160;5.298;2023-02-10T09:18:45;37.03;;;30.27;;
43994;SDS011;51687;52.160;5.298;2023-02-10T09:21:13;37.45;;;31.50;;
43994;SDS011;51687;52.160;5.298;2023-02-10T09:23:39;34.77;;;31.13;;
43994;SDS011;51687;52.160;5.298;2023-02-10T09:26:12;39.58;;;30.90;;
43994;SDS011;51687;52.160;5.298;2023-02-10T09:28:39;35.42;;;31.10;;
43994;SDS011;51687;52.160;5.298;2023-02-10T09:31:07;35.20;;;30.35;;
43994;SDS011;51687;52.160;5.298;2023-02-10T09:33:37;38.28;;;32.00;;
43994;SDS011;51687;52.160;5.298;2023-02-10T09:36:04;44.72;;;31.73;;
43994;SDS011;51687;52.160;5.298;2023-02-10T09:38:33;34.13;;;30.27;;
43994;SDS011;51687;52.160;5.298;2023-02-10T09:57:19;43.50;;;31.85;;
43994;SDS011;51687;52.160;5.298;2023-02-10T09:59:50;38.50;;;31.77;;
43994;SDS011;51687;52.160;5.298;2023-02-10T10:02:53;36.55;;;31.10;;
43994;SDS011;51687;52.160;5.298;2023-02-10T10:05:25;42.58;;;32.58;;
43994;SDS011;51687;52.160;5.298;2023-02-10T10:08:13;43.53;;;33.42;;
43994;SDS011;51687;52.160;5.298;2023-02-10T10:10:51;43.80;;;32.38;;
43994;SDS011;51687;52.160;5.298;2023-02-10T10:13:23;39.90;;;31.50;;
43994;SDS011;51687;52.160;5.298;2023-02-10T10:16:04;39.75;;;31.83;;
43994;SDS011;51687;52.160;5.298;2023-02-10T10:21:19;35.47;;;31.50;;
43994;SDS011;51687;52.160;5.298;2023-02-10T10:29:39;37.92;;;30.80;;
43994;SDS011;51687;52.160;5.298;2023-02-10T10:32:15;39.15;;;29.92;;
43994;SDS011;51687;52.160;5.298;2023-02-10T10:34:52;36.67;;;30.92;;
43994;SDS011;51687;52.160;5.298;2023-02-10T10:37:21;40.15;;;30.58;;
43994;SDS011;51687;52.160;5.298;2023-02-10T10:40:00;33.58;;;27.65;;
43994;SDS011;51687;52.160;5.298;2023-02-10T10:42:41;40.28;;;29.92;;
43994;SDS011;51687;52.160;5.298;2023-02-10T10:45:15;35.40;;;31.40;;
43994;SDS011;51687;52.160;5.298;2023-02-10T10:50:27;40.20;;;29.70;;
43994;SDS011;51687;52.160;5.298;2023-02-10T10:52:55;34.05;;;27.90;;
43994;SDS011;51687;52.160;5.298;2023-02-10T10:57:51;31.10;;;25.17;;
43994;SDS011;51687;52.160;5.298;2023-02-10T11:00:20;35.13;;;27.17;;
43994;SDS011;51687;52.160;5.298;2023-02-10T11:02:51;32.90;;;26.45;;
43994;SDS011;51687;52.160;5.298;2023-02-10T11:05:19;39.72;;;28.10;;
43994;SDS011;51687;52.160;5.298;2023-02-10T11:07:48;28.02;;;25.15;;
43994;SDS011;51687;52.160;5.298;2023-02-10T11:13:17;32.05;;;24.40;;
43994;SDS011;51687;52.160;5.298;2023-02-10T11:15:46;28.13;;;24.25;;
43994;SDS011;51687;52.160;5.298;2023-02-10T11:18:18;27.35;;;22.63;;
43994;SDS011;51687;52.160;5.298;2023-02-10T11:20:58;24.60;;;21.70;;
43994;SDS011;51687;52.160;5.298;2023-02-10T11:23:26;27.13;;;20.83;;
43994;SDS011;51687;52.160;5.298;2023-02-10T11:28:31;25.38;;;22.65;;
43994;SDS011;51687;52.160;5.298;2023-02-10T11:31:03;30.17;;;22.80;;
43994;SDS011;51687;52.160;5.298;2023-02-10T11:33:50;26.00;;;21.55;;
43994;SDS011;51687;52.160;5.298;2023-02-10T11:36:36;32.08;;;24.05;;
43994;SDS011;51687;52.160;5.298;2023-02-10T11:39:14;19.13;;;16.42;;
43994;SDS011;51687;52.160;5.298;2023-02-10T11:41:46;18.80;;;16.83;;
43994;SDS011;51687;52.160;5.298;2023-02-10T11:44:22;25.67;;;19.17;;
43994;SDS011;51687;52.160;5.298;2023-02-10T11:47:34;22.60;;;18.40;;
43994;SDS011;51687;52.160;5.298;2023-02-10T11:49:46;20.00;;;17.90;;
43994;SDS011;51687;52.160;5.298;2023-02-10T11:52:16;25.88;;;18.10;;
43994;SDS011;51687;52.160;5.298;2023-02-10T11:54:45;20.88;;;18.52;;
43994;SDS011;51687;52.160;5.298;2023-02-10T12:14:52;17.73;;;15.02;;
43994;SDS011;51687;52.160;5.298;2023-02-10T12:16:59;16.27;;;13.75;;
43994;SDS011;51687;52.160;5.298;2023-02-10T12:22:23;20.77;;;13.57;;
43994;SDS011;51687;52.160;5.298;2023-02-10T12:25:20;18.33;;;13.15;;
43994;SDS011;51687;52.160;5.298;2023-02-10T12:28:01;15.55;;;12.63;;
43994;SDS011;51687;52.160;5.298;2023-02-10T12:44:19;18.25;;;13.98;;
43994;SDS011;51687;52.160;5.298;2023-02-10T12:46:55;19.02;;;13.27;;
43994;SDS011;51687;52.160;5.298;2023-02-10T12:52:11;17.52;;;14.25;;
43994;SDS011;51687;52.160;5.298;2023-02-10T12:59:55;20.02;;;14.18;;
43994;SDS011;51687;52.160;5.298;2023-02-10T13:02:38;24.05;;;15.20;;
43994;SDS011;51687;52.160;5.298;2023-02-10T13:05:08;20.50;;;15.48;;
43994;SDS011;51687;52.160;5.298;2023-02-10T13:13:12;22.75;;;16.23;;
43994;SDS011;51687;52.160;5.298;2023-02-10T13:18:57;21.35;;;15.32;;
43994;SDS011;51687;52.160;5.298;2023-02-10T13:21:28;27.40;;;15.30;;
43994;SDS011;51687;52.160;5.298;2023-02-10T13:30:26;19.67;;;15.80;;
43994;SDS011;51687;52.160;5.298;2023-02-10T13:36:19;22.95;;;16.90;;
43994;SDS011;51687;52.160;5.298;2023-02-10T13:38:57;25.67;;;17.05;;
43994;SDS011;51687;52.160;5.298;2023-02-10T13:41:32;25.02;;;16.80;;
43994;SDS011;51687;52.160;5.298;2023-02-10T13:44:19;31.90;;;17.88;;
43994;SDS011;51687;52.160;5.298;2023-02-10T13:46:58;28.90;;;19.13;;
43994;SDS011;51687;52.160;5.298;2023-02-10T13:49:38;29.70;;;20.83;;
43994;SDS011;51687;52.160;5.298;2023-02-10T13:52:18;27.45;;;19.15;;
43994;SDS011;51687;52.160;5.298;2023-02-10T13:54:54;39.15;;;22.90;;
43994;SDS011;51687;52.160;5.298;2023-02-10T13:57:24;31.92;;;22.67;;
43994;SDS011;51687;52.160;5.298;2023-02-10T13:59:52;35.42;;;21.88;;
43994;SDS011;51687;52.160;5.298;2023-02-10T14:02:20;43.60;;;24.02;;
43994;SDS011;51687;52.160;5.298;2023-02-10T14:04:49;35.25;;;24.27;;
43994;SDS011;51687;52.160;5.298;2023-02-10T14:10:03;39.20;;;26.85;;
43994;SDS011;51687;52.160;5.298;2023-02-10T14:12:53;40.67;;;26.98;;
43994;SDS011;51687;52.160;5.298;2023-02-10T14:15:29;37.20;;;28.98;;
43994;SDS011;51687;52.160;5.298;2023-02-10T14:18:03;43.50;;;30.23;;
43994;SDS011;51687;52.160;5.298;2023-02-10T14:20:36;46.17;;;30.52;;
43994;SDS011;51687;52.160;5.298;2023-02-10T14:23:05;43.75;;;29.13;;
43994;SDS011;51687;52.160;5.298;2023-02-10T14:25:38;40.35;;;27.35;;
43994;SDS011;51687;52.160;5.298;2023-02-10T14:28:17;46.08;;;29.35;;
43994;SDS011;51687;52.160;5.298;2023-02-10T14:31:35;42.45;;;29.73;;
43994;SDS011;51687;52.160;5.298;2023-02-10T14:33:42;47.38;;;30.42;;
43994;SDS011;51687;52.160;5.298;2023-02-10T14:36:18;44.42;;;32.08;;
43994;SDS011;51687;52.160;5.298;2023-02-10T14:38:49;45.72;;;32.10;;
43994;SDS011;51687;52.160;5.298;2023-02-10T14:41:17;51.42;;;33.50;;
43994;SDS011;51687;52.160;5.298;2023-02-10T14:43:47;44.72;;;31.25;;
43994;SDS011;51687;52.160;5.298;2023-02-10T14:46:23;46.05;;;31.00;;
43994;SDS011;51687;52.160;5.298;2023-02-10T14:49:02;40.95;;;31.42;;
43994;SDS011;51687;52.160;5.298;2023-02-10T14:51:38;51.05;;;33.13;;
43994;SDS011;51687;52.160;5.298;2023-02-10T14:56:53;44.08;;;31.92;;
43994;SDS011;51687;52.160;5.298;2023-02-10T14:59:26;43.55;;;33.55;;
43994;SDS011;51687;52.160;5.298;2023-02-10T15:01:59;50.05;;;35.17;;
43994;SDS011;51687;52.160;5.298;2023-02-10T15:04:45;42.42;;;31.63;;
43994;SDS011;51687;52.160;5.298;2023-02-10T15:07:19;43.63;;;33.72;;
43994;SDS011;51687;52.160;5.298;2023-02-10T15:09:50;41.58;;;32.05;;
43994;SDS011;51687;52.160;5.298;2023-02-10T15:14:49;45.97;;;32.53;;
43994;SDS011;51687;52.160;5.298;2023-02-10T15:17:19;41.10;;;31.98;;
43994;SDS011;51687;52.160;5.298;2023-02-10T15:27:57;38.63;;;30.73;;
43994;SDS011;51687;52.160;5.298;2023-02-10T15:30:28;42.45;;;30.67;;
43994;SDS011;51687;52.160;5.298;2023-02-10T15:32:56;39.50;;;31.20;;
43994;SDS011;51687;52.160;5.298;2023-02-10T15:35:24;39.92;;;30.55;;
43994;SDS011;51687;52.160;5.298;2023-02-10T15:37:53;41.10;;;31.80;;
43994;SDS011;51687;52.160;5.298;2023-02-10T15:40:23;40.90;;;30.73;;
43994;SDS011;51687;52.160;5.298;2023-02-10T15:45:49;39.20;;;30.10;;
43994;SDS011;51687;52.160;5.298;2023-02-10T15:48:20;44.45;;;32.22;;
43994;SDS011;51687;52.160;5.298;2023-02-10T15:51:14;45.13;;;31.10;;
43994;SDS011;51687;52.160;5.298;2023-02-10T15:53:50;47.60;;;31.33;;
43994;SDS011;51687;52.160;5.298;2023-02-10T15:56:21;43.10;;;30.90;;
43994;SDS011;51687;52.160;5.298;2023-02-10T15:58:49;41.42;;;31.27;;
43994;SDS011;51687;52.160;5.298;2023-02-10T16:01:16;38.28;;;29.95;;
43994;SDS011;51687;52.160;5.298;2023-02-10T16:03:43;41.92;;;31.88;;
43994;SDS011;51687;52.160;5.298;2023-02-10T16:06:13;41.13;;;31.83;;
43994;SDS011;51687;52.160;5.298;2023-02-10T16:08:41;46.53;;;32.28;;
43994;SDS011;51687;52.160;5.298;2023-02-10T16:11:09;45.05;;;32.03;;
43994;SDS011;51687;52.160;5.298;2023-02-10T16:13:37;43.15;;;32.30;;
43994;SDS011;51687;52.160;5.298;2023-02-10T16:16:05;48.63;;;32.75;;
43994;SDS011;51687;52.160;5.298;2023-02-10T16:18:40;38.22;;;30.58;;
43994;SDS011;51687;52.160;5.298;2023-02-10T16:21:09;39.83;;;31.55;;
43994;SDS011;51687;52.160;5.298;2023-02-10T16:23:40;39.33;;;31.63;;
43994;SDS011;51687;52.160;5.298;2023-02-10T16:26:08;40.97;;;31.87;;
43994;SDS011;51687;52.160;5.298;2023-02-10T16:28:44;50.03;;;34.20;;
43994;SDS011;51687;52.160;5.298;2023-02-10T16:31:10;36.88;;;31.85;;
43994;SDS011;51687;52.160;5.298;2023-02-10T16:33:37;43.25;;;32.60;;
43994;SDS011;51687;52.160;5.298;2023-02-10T16:36:04;49.20;;;33.90;;
43994;SDS011;51687;52.160;5.298;2023-02-10T16:38:31;44.15;;;33.67;;
43994;SDS011;51687;52.160;5.298;2023-02-10T16:43:26;40.83;;;33.90;;
43994;SDS011;51687;52.160;5.298;2023-02-10T16:45:53;44.33;;;33.33;;
43994;SDS011;51687;52.160;5.298;2023-02-10T16:48:20;40.92;;;34.13;;
43994;SDS011;51687;52.160;5.298;2023-02-10T16:50:47;42.75;;;34.03;;
43994;SDS011;51687;52.160;5.298;2023-02-10T16:53:13;45.80;;;34.88;;
43994;SDS011;51687;52.160;5.298;2023-02-10T16:55:40;47.15;;;34.95;;
43994;SDS011;51687;52.160;5.298;2023-02-10T16:58:12;45.65;;;34.05;;
43994;SDS011;51687;52.160;5.298;2023-02-10T17:00:41;35.55;;;31.20;;
43994;SDS011;51687;52.160;5.298;2023-02-10T17:03:10;43.92;;;32.85;;
43994;SDS011;51687;52.160;5.298;2023-02-10T17:05:37;42.75;;;32.97;;
43994;SDS011;51687;52.160;5.298;2023-02-10T17:08:04;38.80;;;33.05;;
43994;SDS011;51687;52.160;5.298;2023-02-10T17:10:31;43.97;;;32.83;;